sensor_id;sensor_type;location;lat;lon;timestamp;temperature;humidity
20418;DHT22;10368;51.436;6.774;2024-01-06T00:00:25;6.70;99.90
20418;DHT22;10368;51.436;6.774;2024-01-06T00:02:51;6.70;99.90
20418;DHT22;10368;51.436;6.774;2024-01-06T00:05:19;6.70;99.90
20418;DHT22;10368;51.436;6.774;2024-01-06T00:07:46;6.70;99.90
20418;DHT22;10368;51.436;6.774;2024-01-06T00:10:12;6.70;99.90
20418;DHT22;10368;51.436;6.774;2024-01-06T00:12:43;6.70;99.90
20418;DHT22;10368;51.436;6.774;2024-01-06T00:15:11;6.70;99.90
20418;DHT22;10368;51.436;6.774;2024-01-06T00:17:38;6.70;99.90
20418;DHT22;10368;51.436;6.774;2024-01-06T00:20:06;6.80;99.90
20418;DHT22;10368;51.436;6.774;2024-01-06T00:22:33;6.80;99.90
20418;DHT22;10368;51.436;6.774;2024-01-06T00:25:00;6.70;99.90
20418;DHT22;10368;51.436;6.774;2024-01-06T00:27:27;6.70;99.90
20418;DHT22;10368;51.436;6.774;2024-01-06T00:29:55;6.70;99.90
20418;DHT22;10368;51.436;6.774;2024-01-06T00:32:23;6.70;99.90
20418;DHT22;10368;51.436;6.774;2024-01-06T00:34:50;6.70;99.90
20418;DHT22;10368;51.436;6.774;2024-01-06T00:37:17;6.70;99.90
20418;DHT22;10368;51.436;6.774;2024-01-06T00:39:44;6.70;99.90
20418;DHT22;10368;51.436;6.774;2024-01-06T00:42:11;6.80;99.90
20418;DHT22;10368;51.436;6.774;2024-01-06T00:44:38;6.70;99.90
20418;DHT22;10368;51.436;6.774;2024-01-06T00:47:05;6.80;99.90
20418;DHT22;10368;51.436;6.774;2024-01-06T00:49:32;6.70;99.90
20418;DHT22;10368;51.436;6.774;2024-01-06T00:51:59;6.70;99.90
20418;DHT22;10368;51.436;6.774;2024-01-06T00:54:26;6.70;99.90
20418;DHT22;10368;51.436;6.774;2024-01-06T00:56:54;6.70;99.90
20418;DHT22;10368;51.436;6.774;2024-01-06T00:59:24;6.70;99.90
20418;DHT22;10368;51.436;6.774;2024-01-06T01:01:51;6.70;99.90
20418;DHT22;10368;51.436;6.774;2024-01-06T01:04:18;6.70;99.90
20418;DHT22;10368;51.436;6.774;2024-01-06T01:06:45;6.70;99.90
20418;DHT22;10368;51.436;6.774;2024-01-06T01:09:12;6.70;99.90
20418;DHT22;10368;51.436;6.774;2024-01-06T01:11:41;6.70;99.90
20418;DHT22;10368;51.436;6.774;2024-01-06T01:14:08;6.80;99.90
20418;DHT22;10368;51.436;6.774;2024-01-06T01:16:35;6.80;99.90
20418;DHT22;10368;51.436;6.774;2024-01-06T01:19:02;6.80;99.90
20418;DHT22;10368;51.436;6.774;2024-01-06T01:21:29;6.90;99.90
20418;DHT22;10368;51.436;6.774;2024-01-06T01:23:56;6.80;99.90
20418;DHT22;10368;51.436;6.774;2024-01-06T01:26:23;6.80;99.90
20418;DHT22;10368;51.436;6.774;2024-01-06T01:28:50;6.80;99.90
20418;DHT22;10368;51.436;6.774;2024-01-06T01:31:17;6.80;99.90
20418;DHT22;10368;51.436;6.774;2024-01-06T01:33:44;6.90;99.90
20418;DHT22;10368;51.436;6.774;2024-01-06T01:36:11;6.80;99.90
20418;DHT22;10368;51.436;6.774;2024-01-06T01:38:39;6.80;99.90
20418;DHT22;10368;51.436;6.774;2024-01-06T01:41:05;6.80;99.90
20418;DHT22;10368;51.436;6.774;2024-01-06T01:43:32;6.80;99.90
20418;DHT22;10368;51.436;6.774;2024-01-06T01:46:00;6.80;99.90
20418;DHT22;10368;51.436;6.774;2024-01-06T01:48:28;6.90;99.90
20418;DHT22;10368;51.436;6.774;2024-01-06T01:50:56;6.80;99.90
20418;DHT22;10368;51.436;6.774;2024-01-06T01:53:23;6.80;99.90
20418;DHT22;10368;51.436;6.774;2024-01-06T01:55:51;7.00;99.90
20418;DHT22;10368;51.436;6.774;2024-01-06T01:58:18;6.90;99.90
20418;DHT22;10368;51.436;6.774;2024-01-06T02:00:46;6.80;99.90
20418;DHT22;10368;51.436;6.774;2024-01-06T02:03:13;6.80;99.90
20418;DHT22;10368;51.436;6.774;2024-01-06T02:05:41;6.80;99.90
20418;DHT22;10368;51.436;6.774;2024-01-06T02:08:08;6.80;99.90
20418;DHT22;10368;51.436;6.774;2024-01-06T02:10:35;6.80;99.90
20418;DHT22;10368;51.436;6.774;2024-01-06T02:13:11;6.90;99.90
20418;DHT22;10368;51.436;6.774;2024-01-06T02:15:38;6.90;99.90
20418;DHT22;10368;51.436;6.774;2024-01-06T02:18:06;6.90;99.90
20418;DHT22;10368;51.436;6.774;2024-01-06T02:20:34;6.90;99.90
20418;DHT22;10368;51.436;6.774;2024-01-06T02:23:01;6.80;99.90
20418;DHT22;10368;51.436;6.774;2024-01-06T02:25:28;6.80;99.90
20418;DHT22;10368;51.436;6.774;2024-01-06T02:27:56;6.80;99.90
20418;DHT22;10368;51.436;6.774;2024-01-06T02:30:23;6.80;99.90
20418;DHT22;10368;51.436;6.774;2024-01-06T02:32:50;6.80;99.90
20418;DHT22;10368;51.436;6.774;2024-01-06T02:35:17;6.70;99.90
20418;DHT22;10368;51.436;6.774;2024-01-06T02:37:44;6.70;99.90
20418;DHT22;10368;51.436;6.774;2024-01-06T02:40:11;6.80;99.90
20418;DHT22;10368;51.436;6.774;2024-01-06T02:42:39;6.80;99.90
20418;DHT22;10368;51.436;6.774;2024-01-06T02:45:07;6.80;99.90
20418;DHT22;10368;51.436;6.774;2024-01-06T02:47:35;6.80;99.90
20418;DHT22;10368;51.436;6.774;2024-01-06T02:50:02;6.80;99.90
20418;DHT22;10368;51.436;6.774;2024-01-06T02:52:29;6.80;99.90
20418;DHT22;10368;51.436;6.774;2024-01-06T02:54:56;6.80;99.90
20418;DHT22;10368;51.436;6.774;2024-01-06T02:57:23;6.80;99.90
20418;DHT22;10368;51.436;6.774;2024-01-06T02:59:50;6.80;99.90
20418;DHT22;10368;51.436;6.774;2024-01-06T03:02:17;6.70;99.90
20418;DHT22;10368;51.436;6.774;2024-01-06T03:04:44;6.70;99.90
20418;DHT22;10368;51.436;6.774;2024-01-06T03:07:11;6.70;99.90
20418;DHT22;10368;51.436;6.774;2024-01-06T03:09:38;6.60;99.90
20418;DHT22;10368;51.436;6.774;2024-01-06T03:12:06;6.50;99.90
20418;DHT22;10368;51.436;6.774;2024-01-06T03:14:37;6.50;99.90
20418;DHT22;10368;51.436;6.774;2024-01-06T03:17:04;6.50;99.90
20418;DHT22;10368;51.436;6.774;2024-01-06T03:19:31;6.50;99.90
20418;DHT22;10368;51.436;6.774;2024-01-06T03:21:58;6.40;99.90
20418;DHT22;10368;51.436;6.774;2024-01-06T03:24:26;6.30;99.90
20418;DHT22;10368;51.436;6.774;2024-01-06T03:26:53;6.30;99.90
20418;DHT22;10368;51.436;6.774;2024-01-06T03:29:20;6.30;99.90
20418;DHT22;10368;51.436;6.774;2024-01-06T03:31:47;6.30;99.90
20418;DHT22;10368;51.436;6.774;2024-01-06T03:34:14;6.20;99.90
20418;DHT22;10368;51.436;6.774;2024-01-06T03:36:42;6.20;99.90
20418;DHT22;10368;51.436;6.774;2024-01-06T03:39:09;6.20;99.90
20418;DHT22;10368;51.436;6.774;2024-01-06T03:41:37;6.20;99.90
20418;DHT22;10368;51.436;6.774;2024-01-06T03:44:04;6.20;99.90
20418;DHT22;10368;51.436;6.774;2024-01-06T03:46:32;6.20;99.90
20418;DHT22;10368;51.436;6.774;2024-01-06T03:48:59;6.20;99.90
20418;DHT22;10368;51.436;6.774;2024-01-06T03:51:27;6.10;99.90
20418;DHT22;10368;51.436;6.774;2024-01-06T03:53:54;6.10;99.90
20418;DHT22;10368;51.436;6.774;2024-01-06T03:56:21;6.00;99.90
20418;DHT22;10368;51.436;6.774;2024-01-06T03:58:48;6.00;99.90
20418;DHT22;10368;51.436;6.774;2024-01-06T04:01:14;6.00;99.90
20418;DHT22;10368;51.436;6.774;2024-01-06T04:03:41;6.00;99.90
20418;DHT22;10368;51.436;6.774;2024-01-06T04:06:09;5.90;99.90
20418;DHT22;10368;51.436;6.774;2024-01-06T04:08:38;5.90;99.90
20418;DHT22;10368;51.436;6.774;2024-01-06T04:11:05;5.90;99.90
20418;DHT22;10368;51.436;6.774;2024-01-06T04:13:32;6.00;99.90
20418;DHT22;10368;51.436;6.774;2024-01-06T04:15:59;6.00;99.90
20418;DHT22;10368;51.436;6.774;2024-01-06T04:18:26;6.00;99.90
20418;DHT22;10368;51.436;6.774;2024-01-06T04:20:53;5.90;99.90
20418;DHT22;10368;51.436;6.774;2024-01-06T04:23:20;6.00;99.90
20418;DHT22;10368;51.436;6.774;2024-01-06T04:25:51;6.00;99.90
20418;DHT22;10368;51.436;6.774;2024-01-06T04:28:18;6.00;99.90
20418;DHT22;10368;51.436;6.774;2024-01-06T04:30:45;6.00;99.90
20418;DHT22;10368;51.436;6.774;2024-01-06T04:33:12;5.90;99.90
20418;DHT22;10368;51.436;6.774;2024-01-06T04:35:39;6.00;99.90
20418;DHT22;10368;51.436;6.774;2024-01-06T04:38:06;5.90;99.90
20418;DHT22;10368;51.436;6.774;2024-01-06T04:40:33;6.00;99.90
20418;DHT22;10368;51.436;6.774;2024-01-06T04:43:00;5.90;99.90
20418;DHT22;10368;51.436;6.774;2024-01-06T04:45:27;5.90;99.90
20418;DHT22;10368;51.436;6.774;2024-01-06T04:47:54;5.90;99.90
20418;DHT22;10368;51.436;6.774;2024-01-06T04:50:21;5.90;99.90
20418;DHT22;10368;51.436;6.774;2024-01-06T04:52:48;5.80;99.90
20418;DHT22;10368;51.436;6.774;2024-01-06T04:55:15;5.90;99.90
20418;DHT22;10368;51.436;6.774;2024-01-06T04:57:42;5.90;99.90
20418;DHT22;10368;51.436;6.774;2024-01-06T05:00:09;6.00;99.90
20418;DHT22;10368;51.436;6.774;2024-01-06T05:02:37;5.80;99.90
20418;DHT22;10368;51.436;6.774;2024-01-06T05:05:04;5.80;99.90
20418;DHT22;10368;51.436;6.774;2024-01-06T05:07:31;5.80;99.90
20418;DHT22;10368;51.436;6.774;2024-01-06T05:09:58;5.80;99.90
20418;DHT22;10368;51.436;6.774;2024-01-06T05:12:25;5.80;99.90
20418;DHT22;10368;51.436;6.774;2024-01-06T05:14:52;5.70;99.90
20418;DHT22;10368;51.436;6.774;2024-01-06T05:17:19;5.70;99.90
20418;DHT22;10368;51.436;6.774;2024-01-06T05:19:46;5.70;99.90
20418;DHT22;10368;51.436;6.774;2024-01-06T05:22:13;5.70;99.90
20418;DHT22;10368;51.436;6.774;2024-01-06T05:24:40;5.70;99.90
20418;DHT22;10368;51.436;6.774;2024-01-06T05:27:07;5.60;99.90
20418;DHT22;10368;51.436;6.774;2024-01-06T05:29:38;5.70;99.90
20418;DHT22;10368;51.436;6.774;2024-01-06T05:32:05;5.60;99.90
20418;DHT22;10368;51.436;6.774;2024-01-06T05:34:32;5.70;99.90
20418;DHT22;10368;51.436;6.774;2024-01-06T05:36:59;5.60;99.90
20418;DHT22;10368;51.436;6.774;2024-01-06T05:39:26;5.60;99.90
20418;DHT22;10368;51.436;6.774;2024-01-06T05:41:53;5.60;99.90
20418;DHT22;10368;51.436;6.774;2024-01-06T05:44:20;5.60;99.90
20418;DHT22;10368;51.436;6.774;2024-01-06T05:46:47;5.60;99.90
20418;DHT22;10368;51.436;6.774;2024-01-06T05:49:14;5.60;99.90
20418;DHT22;10368;51.436;6.774;2024-01-06T05:51:45;5.50;99.90
20418;DHT22;10368;51.436;6.774;2024-01-06T05:54:13;5.60;99.90
20418;DHT22;10368;51.436;6.774;2024-01-06T05:56:40;5.60;99.90
20418;DHT22;10368;51.436;6.774;2024-01-06T05:59:07;5.60;99.90
20418;DHT22;10368;51.436;6.774;2024-01-06T06:01:34;5.60;99.90
20418;DHT22;10368;51.436;6.774;2024-01-06T06:04:01;5.50;99.90
20418;DHT22;10368;51.436;6.774;2024-01-06T06:06:29;5.60;99.90
20418;DHT22;10368;51.436;6.774;2024-01-06T06:08:56;5.60;99.90
20418;DHT22;10368;51.436;6.774;2024-01-06T06:11:23;5.50;99.90
20418;DHT22;10368;51.436;6.774;2024-01-06T06:13:50;5.60;99.90
20418;DHT22;10368;51.436;6.774;2024-01-06T06:16:17;5.60;99.90
20418;DHT22;10368;51.436;6.774;2024-01-06T06:18:44;5.60;99.90
20418;DHT22;10368;51.436;6.774;2024-01-06T06:21:12;5.50;99.90
20418;DHT22;10368;51.436;6.774;2024-01-06T06:23:38;5.50;99.90
20418;DHT22;10368;51.436;6.774;2024-01-06T06:26:06;5.60;99.90
20418;DHT22;10368;51.436;6.774;2024-01-06T06:28:34;5.50;99.90
20418;DHT22;10368;51.436;6.774;2024-01-06T06:31:02;5.50;99.90
20418;DHT22;10368;51.436;6.774;2024-01-06T06:33:29;5.40;99.90
20418;DHT22;10368;51.436;6.774;2024-01-06T06:35:56;5.30;99.90
20418;DHT22;10368;51.436;6.774;2024-01-06T06:38:25;5.40;99.90
20418;DHT22;10368;51.436;6.774;2024-01-06T06:40:52;5.30;99.90
20418;DHT22;10368;51.436;6.774;2024-01-06T06:43:19;5.30;99.90
20418;DHT22;10368;51.436;6.774;2024-01-06T06:45:46;5.30;99.90
20418;DHT22;10368;51.436;6.774;2024-01-06T06:48:13;5.30;99.90
20418;DHT22;10368;51.436;6.774;2024-01-06T06:50:40;5.30;99.90
20418;DHT22;10368;51.436;6.774;2024-01-06T06:53:10;5.30;99.90
20418;DHT22;10368;51.436;6.774;2024-01-06T06:55:37;5.30;99.90
20418;DHT22;10368;51.436;6.774;2024-01-06T06:58:05;5.30;99.90
20418;DHT22;10368;51.436;6.774;2024-01-06T07:00:32;5.20;99.90
20418;DHT22;10368;51.436;6.774;2024-01-06T07:03:00;5.20;99.90
20418;DHT22;10368;51.436;6.774;2024-01-06T07:05:27;5.30;99.90
20418;DHT22;10368;51.436;6.774;2024-01-06T07:07:54;5.30;99.90
20418;DHT22;10368;51.436;6.774;2024-01-06T07:10:22;5.20;99.90
20418;DHT22;10368;51.436;6.774;2024-01-06T07:12:49;5.20;99.90
20418;DHT22;10368;51.436;6.774;2024-01-06T07:15:16;5.20;99.90
20418;DHT22;10368;51.436;6.774;2024-01-06T07:17:43;5.20;99.90
20418;DHT22;10368;51.436;6.774;2024-01-06T07:20:10;5.30;99.90
20418;DHT22;10368;51.436;6.774;2024-01-06T07:22:37;5.30;99.90
20418;DHT22;10368;51.436;6.774;2024-01-06T07:25:05;5.20;99.90
20418;DHT22;10368;51.436;6.774;2024-01-06T07:27:32;5.10;99.90
20418;DHT22;10368;51.436;6.774;2024-01-06T07:29:59;5.00;99.90
20418;DHT22;10368;51.436;6.774;2024-01-06T07:32:26;5.00;99.90
20418;DHT22;10368;51.436;6.774;2024-01-06T07:34:53;5.00;99.90
20418;DHT22;10368;51.436;6.774;2024-01-06T07:37:20;5.00;99.90
20418;DHT22;10368;51.436;6.774;2024-01-06T07:39:47;5.10;99.90
20418;DHT22;10368;51.436;6.774;2024-01-06T07:42:14;5.10;99.90
20418;DHT22;10368;51.436;6.774;2024-01-06T07:44:42;5.10;99.90
20418;DHT22;10368;51.436;6.774;2024-01-06T07:47:08;5.10;99.90
20418;DHT22;10368;51.436;6.774;2024-01-06T07:49:35;5.10;99.90
20418;DHT22;10368;51.436;6.774;2024-01-06T07:52:03;5.10;99.90
20418;DHT22;10368;51.436;6.774;2024-01-06T07:54:30;5.00;99.90
20418;DHT22;10368;51.436;6.774;2024-01-06T07:56:57;5.00;99.90
20418;DHT22;10368;51.436;6.774;2024-01-06T07:59:24;4.90;99.90
20418;DHT22;10368;51.436;6.774;2024-01-06T08:01:51;5.10;99.90
20418;DHT22;10368;51.436;6.774;2024-01-06T08:04:18;5.20;99.90
20418;DHT22;10368;51.436;6.774;2024-01-06T08:06:45;5.20;99.90
20418;DHT22;10368;51.436;6.774;2024-01-06T08:09:12;5.10;99.90
20418;DHT22;10368;51.436;6.774;2024-01-06T08:11:39;5.00;99.90
20418;DHT22;10368;51.436;6.774;2024-01-06T08:14:06;5.20;99.90
20418;DHT22;10368;51.436;6.774;2024-01-06T08:16:33;5.20;99.90
20418;DHT22;10368;51.436;6.774;2024-01-06T08:19:00;5.00;99.90
20418;DHT22;10368;51.436;6.774;2024-01-06T08:21:27;5.10;99.90
20418;DHT22;10368;51.436;6.774;2024-01-06T08:23:54;5.00;99.90
20418;DHT22;10368;51.436;6.774;2024-01-06T08:26:22;4.90;99.90
20418;DHT22;10368;51.436;6.774;2024-01-06T08:28:49;5.00;99.90
20418;DHT22;10368;51.436;6.774;2024-01-06T08:31:16;5.00;99.90
20418;DHT22;10368;51.436;6.774;2024-01-06T08:33:43;5.10;99.90
20418;DHT22;10368;51.436;6.774;2024-01-06T08:36:11;5.20;99.90
20418;DHT22;10368;51.436;6.774;2024-01-06T08:38:38;5.10;99.90
20418;DHT22;10368;51.436;6.774;2024-01-06T08:41:05;5.10;99.90
20418;DHT22;10368;51.436;6.774;2024-01-06T08:43:31;4.90;99.90
20418;DHT22;10368;51.436;6.774;2024-01-06T08:45:58;4.90;99.90
20418;DHT22;10368;51.436;6.774;2024-01-06T08:48:26;4.90;99.90
20418;DHT22;10368;51.436;6.774;2024-01-06T08:50:53;4.90;99.90
20418;DHT22;10368;51.436;6.774;2024-01-06T10:24:37;4.50;99.90
20418;DHT22;10368;51.436;6.774;2024-01-06T10:27:04;4.60;99.90
20418;DHT22;10368;51.436;6.774;2024-01-06T10:29:31;4.70;99.90
20418;DHT22;10368;51.436;6.774;2024-01-06T10:31:59;4.70;99.90
20418;DHT22;10368;51.436;6.774;2024-01-06T10:34:26;4.70;99.90
20418;DHT22;10368;51.436;6.774;2024-01-06T10:36:53;4.70;99.90
20418;DHT22;10368;51.436;6.774;2024-01-06T10:39:21;4.40;99.90
20418;DHT22;10368;51.436;6.774;2024-01-06T10:41:49;4.60;99.90
20418;DHT22;10368;51.436;6.774;2024-01-06T10:44:16;4.50;99.90
20418;DHT22;10368;51.436;6.774;2024-01-06T10:46:44;4.40;99.90
20418;DHT22;10368;51.436;6.774;2024-01-06T10:49:12;4.40;99.90
20418;DHT22;10368;51.436;6.774;2024-01-06T10:51:41;4.50;99.90
20418;DHT22;10368;51.436;6.774;2024-01-06T10:54:09;4.40;99.90
20418;DHT22;10368;51.436;6.774;2024-01-06T10:56:39;4.50;99.90
20418;DHT22;10368;51.436;6.774;2024-01-06T10:59:06;4.40;99.90
20418;DHT22;10368;51.436;6.774;2024-01-06T11:01:34;4.50;99.90
20418;DHT22;10368;51.436;6.774;2024-01-06T11:04:03;4.50;99.90
20418;DHT22;10368;51.436;6.774;2024-01-06T11:06:32;4.50;99.90
20418;DHT22;10368;51.436;6.774;2024-01-06T11:09:11;4.40;99.90
20418;DHT22;10368;51.436;6.774;2024-01-06T11:11:40;4.20;99.90
20418;DHT22;10368;51.436;6.774;2024-01-06T11:50:04;4.20;99.90
20418;DHT22;10368;51.436;6.774;2024-01-06T11:55:00;3.90;99.90
20418;DHT22;10368;51.436;6.774;2024-01-06T11:57:28;3.90;99.90
20418;DHT22;10368;51.436;6.774;2024-01-06T11:59:55;3.80;99.90
20418;DHT22;10368;51.436;6.774;2024-01-06T12:02:22;3.90;99.90
20418;DHT22;10368;51.436;6.774;2024-01-06T12:04:53;4.00;99.90
20418;DHT22;10368;51.436;6.774;2024-01-06T12:07:21;4.00;99.90
20418;DHT22;10368;51.436;6.774;2024-01-06T12:10:00;4.00;99.90
20418;DHT22;10368;51.436;6.774;2024-01-06T12:12:27;4.00;99.90
20418;DHT22;10368;51.436;6.774;2024-01-06T12:14:54;3.90;99.90
20418;DHT22;10368;51.436;6.774;2024-01-06T12:17:21;3.90;99.90
20418;DHT22;10368;51.436;6.774;2024-01-06T12:19:49;4.00;99.90
20418;DHT22;10368;51.436;6.774;2024-01-06T12:22:16;4.00;99.90
20418;DHT22;10368;51.436;6.774;2024-01-06T12:24:43;3.90;99.90
20418;DHT22;10368;51.436;6.774;2024-01-06T12:27:10;3.90;99.90
20418;DHT22;10368;51.436;6.774;2024-01-06T12:29:39;3.80;99.90
20418;DHT22;10368;51.436;6.774;2024-01-06T12:32:08;3.80;99.90
20418;DHT22;10368;51.436;6.774;2024-01-06T12:34:35;3.80;99.90
20418;DHT22;10368;51.436;6.774;2024-01-06T12:37:03;3.90;99.90
20418;DHT22;10368;51.436;6.774;2024-01-06T12:39:30;4.00;99.90
20418;DHT22;10368;51.436;6.774;2024-01-06T12:41:58;3.90;99.90
20418;DHT22;10368;51.436;6.774;2024-01-06T12:44:28;3.80;99.90
20418;DHT22;10368;51.436;6.774;2024-01-06T12:46:55;4.00;99.90
20418;DHT22;10368;51.436;6.774;2024-01-06T12:49:23;4.00;99.90
20418;DHT22;10368;51.436;6.774;2024-01-06T12:51:50;4.00;99.90
20418;DHT22;10368;51.436;6.774;2024-01-06T12:54:17;3.90;99.90
20418;DHT22;10368;51.436;6.774;2024-01-06T12:56:44;3.90;99.90
20418;DHT22;10368;51.436;6.774;2024-01-06T12:59:11;3.90;99.90
20418;DHT22;10368;51.436;6.774;2024-01-06T13:01:38;3.80;99.90
20418;DHT22;10368;51.436;6.774;2024-01-06T13:04:06;3.80;99.90
20418;DHT22;10368;51.436;6.774;2024-01-06T13:06:33;3.80;99.90
20418;DHT22;10368;51.436;6.774;2024-01-06T13:09:01;3.70;99.90
20418;DHT22;10368;51.436;6.774;2024-01-06T13:11:35;3.60;99.90
20418;DHT22;10368;51.436;6.774;2024-01-06T13:14:02;3.70;99.90
20418;DHT22;10368;51.436;6.774;2024-01-06T13:16:29;3.70;99.90
20418;DHT22;10368;51.436;6.774;2024-01-06T13:18:57;3.80;99.90
20418;DHT22;10368;51.436;6.774;2024-01-06T13:21:24;3.70;99.90
20418;DHT22;10368;51.436;6.774;2024-01-06T13:23:51;3.60;99.90
20418;DHT22;10368;51.436;6.774;2024-01-06T13:26:18;3.70;99.90
20418;DHT22;10368;51.436;6.774;2024-01-06T13:28:45;3.70;99.90
20418;DHT22;10368;51.436;6.774;2024-01-06T13:31:13;3.70;99.90
20418;DHT22;10368;51.436;6.774;2024-01-06T13:33:41;3.70;99.90
20418;DHT22;10368;51.436;6.774;2024-01-06T13:36:09;3.60;99.90
20418;DHT22;10368;51.436;6.774;2024-01-06T13:38:36;3.70;99.90
20418;DHT22;10368;51.436;6.774;2024-01-06T13:41:04;3.60;99.90
20418;DHT22;10368;51.436;6.774;2024-01-06T13:43:31;3.50;99.90
20418;DHT22;10368;51.436;6.774;2024-01-06T13:45:59;3.50;99.90
20418;DHT22;10368;51.436;6.774;2024-01-06T13:48:26;3.60;99.90
20418;DHT22;10368;51.436;6.774;2024-01-06T13:50:53;3.50;99.90
20418;DHT22;10368;51.436;6.774;2024-01-06T13:53:20;3.50;99.90
20418;DHT22;10368;51.436;6.774;2024-01-06T13:55:48;3.50;99.90
20418;DHT22;10368;51.436;6.774;2024-01-06T13:58:14;3.40;99.90
20418;DHT22;10368;51.436;6.774;2024-01-06T14:00:43;3.40;99.90
20418;DHT22;10368;51.436;6.774;2024-01-06T14:03:11;3.40;99.90
20418;DHT22;10368;51.436;6.774;2024-01-06T14:05:37;3.50;99.90
20418;DHT22;10368;51.436;6.774;2024-01-06T14:08:06;3.40;99.90
20418;DHT22;10368;51.436;6.774;2024-01-06T14:10:33;3.40;99.90
20418;DHT22;10368;51.436;6.774;2024-01-06T14:13:00;3.40;99.90
20418;DHT22;10368;51.436;6.774;2024-01-06T14:15:27;3.50;99.90
20418;DHT22;10368;51.436;6.774;2024-01-06T14:17:56;3.30;99.90
20418;DHT22;10368;51.436;6.774;2024-01-06T14:20:24;3.30;99.90
20418;DHT22;10368;51.436;6.774;2024-01-06T14:22:51;3.30;99.90
20418;DHT22;10368;51.436;6.774;2024-01-06T14:25:18;3.40;99.90
20418;DHT22;10368;51.436;6.774;2024-01-06T14:27:45;3.30;99.90
20418;DHT22;10368;51.436;6.774;2024-01-06T14:30:13;3.20;99.90
20418;DHT22;10368;51.436;6.774;2024-01-06T14:32:40;3.30;99.90
20418;DHT22;10368;51.436;6.774;2024-01-06T14:35:08;3.30;99.90
20418;DHT22;10368;51.436;6.774;2024-01-06T14:37:38;3.30;99.90
20418;DHT22;10368;51.436;6.774;2024-01-06T14:40:07;3.30;99.90
20418;DHT22;10368;51.436;6.774;2024-01-06T14:42:34;3.20;99.90
20418;DHT22;10368;51.436;6.774;2024-01-06T14:45:03;3.20;99.90
20418;DHT22;10368;51.436;6.774;2024-01-06T14:47:30;3.30;99.90
20418;DHT22;10368;51.436;6.774;2024-01-06T14:49:59;3.10;99.90
20418;DHT22;10368;51.436;6.774;2024-01-06T14:52:26;3.10;99.90
20418;DHT22;10368;51.436;6.774;2024-01-06T14:54:54;3.10;99.90
20418;DHT22;10368;51.436;6.774;2024-01-06T14:57:21;3.10;99.90
20418;DHT22;10368;51.436;6.774;2024-01-06T14:59:48;3.20;99.90
20418;DHT22;10368;51.436;6.774;2024-01-06T15:02:15;3.10;99.90
20418;DHT22;10368;51.436;6.774;2024-01-06T15:04:43;3.10;99.90
20418;DHT22;10368;51.436;6.774;2024-01-06T15:07:10;3.20;99.90
20418;DHT22;10368;51.436;6.774;2024-01-06T15:09:40;3.20;99.90
20418;DHT22;10368;51.436;6.774;2024-01-06T15:12:09;3.20;99.90
20418;DHT22;10368;51.436;6.774;2024-01-06T15:14:36;3.20;99.90
20418;DHT22;10368;51.436;6.774;2024-01-06T15:17:03;3.20;99.90
20418;DHT22;10368;51.436;6.774;2024-01-06T15:19:30;3.30;99.90
20418;DHT22;10368;51.436;6.774;2024-01-06T15:21:58;3.30;99.90
20418;DHT22;10368;51.436;6.774;2024-01-06T15:24:25;3.30;99.90
20418;DHT22;10368;51.436;6.774;2024-01-06T15:26:53;3.20;99.90
20418;DHT22;10368;51.436;6.774;2024-01-06T15:29:20;3.20;99.90
20418;DHT22;10368;51.436;6.774;2024-01-06T15:31:47;3.00;99.90
20418;DHT22;10368;51.436;6.774;2024-01-06T15:34:14;3.00;99.90
20418;DHT22;10368;51.436;6.774;2024-01-06T15:36:42;3.10;99.90
20418;DHT22;10368;51.436;6.774;2024-01-06T15:39:09;3.20;99.90
20418;DHT22;10368;51.436;6.774;2024-01-06T15:41:35;3.20;99.90
20418;DHT22;10368;51.436;6.774;2024-01-06T15:44:04;3.20;99.90
20418;DHT22;10368;51.436;6.774;2024-01-06T15:46:32;3.10;99.90
20418;DHT22;10368;51.436;6.774;2024-01-06T15:48:59;3.10;99.90
20418;DHT22;10368;51.436;6.774;2024-01-06T15:51:26;3.30;99.90
20418;DHT22;10368;51.436;6.774;2024-01-06T15:53:53;3.00;99.90
20418;DHT22;10368;51.436;6.774;2024-01-06T15:56:20;3.00;99.90
20418;DHT22;10368;51.436;6.774;2024-01-06T15:58:47;3.10;99.90
20418;DHT22;10368;51.436;6.774;2024-01-06T16:01:15;3.10;99.90
20418;DHT22;10368;51.436;6.774;2024-01-06T16:03:42;3.00;99.90
20418;DHT22;10368;51.436;6.774;2024-01-06T16:06:09;3.20;99.90
20418;DHT22;10368;51.436;6.774;2024-01-06T16:08:36;3.10;99.90
20418;DHT22;10368;51.436;6.774;2024-01-06T16:11:03;3.00;99.90
20418;DHT22;10368;51.436;6.774;2024-01-06T16:13:30;3.00;99.90
20418;DHT22;10368;51.436;6.774;2024-01-06T16:15:57;3.00;99.90
20418;DHT22;10368;51.436;6.774;2024-01-06T16:18:23;3.10;99.90
20418;DHT22;10368;51.436;6.774;2024-01-06T16:20:51;3.00;99.90
20418;DHT22;10368;51.436;6.774;2024-01-06T16:23:20;3.10;99.90
20418;DHT22;10368;51.436;6.774;2024-01-06T16:25:50;3.10;99.90
20418;DHT22;10368;51.436;6.774;2024-01-06T16:28:17;3.00;99.90
20418;DHT22;10368;51.436;6.774;2024-01-06T16:30:44;2.90;99.90
20418;DHT22;10368;51.436;6.774;2024-01-06T16:33:11;3.00;99.90
20418;DHT22;10368;51.436;6.774;2024-01-06T16:35:39;3.00;99.90
20418;DHT22;10368;51.436;6.774;2024-01-06T16:38:08;2.80;99.90
20418;DHT22;10368;51.436;6.774;2024-01-06T16:40:35;2.90;99.90
20418;DHT22;10368;51.436;6.774;2024-01-06T16:43:02;2.80;99.90
20418;DHT22;10368;51.436;6.774;2024-01-06T16:45:29;2.80;99.90
20418;DHT22;10368;51.436;6.774;2024-01-06T16:47:58;2.80;99.90
20418;DHT22;10368;51.436;6.774;2024-01-06T16:50:25;2.80;99.90
20418;DHT22;10368;51.436;6.774;2024-01-06T16:52:52;2.80;99.90
20418;DHT22;10368;51.436;6.774;2024-01-06T16:55:19;2.90;99.90
20418;DHT22;10368;51.436;6.774;2024-01-06T16:57:46;2.90;99.90
20418;DHT22;10368;51.436;6.774;2024-01-06T17:00:13;2.90;99.90
20418;DHT22;10368;51.436;6.774;2024-01-06T17:02:40;2.90;99.90
20418;DHT22;10368;51.436;6.774;2024-01-06T17:05:07;2.90;99.90
20418;DHT22;10368;51.436;6.774;2024-01-06T17:07:39;3.00;99.90
20418;DHT22;10368;51.436;6.774;2024-01-06T17:10:15;3.10;99.90
20418;DHT22;10368;51.436;6.774;2024-01-06T17:12:43;3.00;99.90
20418;DHT22;10368;51.436;6.774;2024-01-06T17:15:12;2.90;99.90
20418;DHT22;10368;51.436;6.774;2024-01-06T17:17:40;3.00;99.90
20418;DHT22;10368;51.436;6.774;2024-01-06T17:20:08;3.00;99.90
20418;DHT22;10368;51.436;6.774;2024-01-06T17:22:38;3.00;99.90
20418;DHT22;10368;51.436;6.774;2024-01-06T17:25:05;2.90;99.90
20418;DHT22;10368;51.436;6.774;2024-01-06T17:27:37;2.90;99.90
20418;DHT22;10368;51.436;6.774;2024-01-06T17:30:05;3.00;99.90
20418;DHT22;10368;51.436;6.774;2024-01-06T17:32:32;3.00;99.90
20418;DHT22;10368;51.436;6.774;2024-01-06T17:35:02;3.00;99.90
20418;DHT22;10368;51.436;6.774;2024-01-06T17:37:30;3.00;99.90
20418;DHT22;10368;51.436;6.774;2024-01-06T17:39:57;2.90;99.90
20418;DHT22;10368;51.436;6.774;2024-01-06T17:42:24;2.90;99.90
20418;DHT22;10368;51.436;6.774;2024-01-06T17:44:52;2.80;99.90
20418;DHT22;10368;51.436;6.774;2024-01-06T17:47:19;2.80;99.90
20418;DHT22;10368;51.436;6.774;2024-01-06T17:49:46;2.70;99.90
20418;DHT22;10368;51.436;6.774;2024-01-06T17:52:13;2.80;99.90
20418;DHT22;10368;51.436;6.774;2024-01-06T17:54:40;2.70;99.90